createdAt,value
2019-04-22T00:00:37.250Z,3.30
2019-04-22T00:01:36.372Z,2.50
2019-04-22T00:02:40.090Z,3.20
2019-04-22T00:03:44.797Z,3.40
2019-04-22T00:04:47.500Z,3.10
2019-04-22T00:05:56.323Z,4.00
2019-04-22T00:06:58.013Z,4.10
2019-04-22T00:08:05.170Z,3.00
2019-04-22T00:09:08.931Z,2.90
2019-04-22T00:10:12.061Z,3.70
2019-04-22T00:11:04.894Z,3.80
2019-04-22T00:12:11.232Z,2.80
2019-04-22T00:12:59.837Z,2.70
2019-04-22T00:14:57.108Z,3.40
2019-04-22T00:15:56.547Z,4.30
2019-04-22T00:17:07.292Z,2.40
2019-04-22T00:20:04.670Z,3.70
2019-04-22T00:21:04.832Z,3.10
2019-04-22T00:22:02.507Z,2.30
2019-04-22T00:22:57.395Z,3.10
2019-04-22T00:23:54.745Z,3.60
2019-04-22T00:24:54.743Z,4.00
2019-04-22T00:26:05.248Z,3.70
2019-04-22T00:27:03.903Z,1.80
2019-04-22T00:28:05.038Z,3.20
2019-04-22T00:29:10.361Z,2.80
2019-04-22T00:30:07.685Z,3.40
2019-04-22T00:31:06.682Z,3.20
2019-04-22T00:32:01.803Z,3.30
2019-04-22T00:32:55.854Z,4.50
2019-04-22T00:33:57.806Z,3.00
2019-04-22T00:34:59.238Z,3.00
2019-04-22T00:36:04.416Z,2.90
2019-04-22T00:37:06.234Z,2.60
2019-04-22T00:38:03.789Z,2.50
2019-04-22T00:38:58.694Z,2.90
2019-04-22T00:39:57.827Z,2.60
2019-04-22T00:40:59.105Z,5.00
2019-04-22T00:42:01.958Z,2.60
2019-04-22T00:42:58.564Z,3.70
2019-04-22T00:44:08.805Z,3.30
2019-04-22T00:45:55.897Z,2.80
2019-04-22T00:47:01.800Z,3.00
2019-04-22T00:48:01.033Z,2.80
2019-04-22T00:49:43.500Z,3.00
2019-04-22T00:50:12.320Z,2.90
2019-04-22T00:51:08.863Z,3.50
2019-04-22T00:52:03.226Z,2.30
2019-04-22T00:53:04.359Z,4.30
2019-04-22T00:54:03.262Z,3.30
2019-04-22T00:55:05.467Z,3.50
2019-04-22T00:56:04.181Z,2.30
2019-04-22T00:57:01.245Z,4.50
2019-04-22T00:58:02.555Z,3.00
2019-04-22T00:58:59.064Z,3.30
2019-04-22T00:59:57.285Z,3.50
2019-04-22T01:01:01.887Z,3.20
2019-04-22T01:02:00.687Z,3.60
2019-04-22T01:03:05.796Z,2.60
2019-04-22T01:04:07.521Z,3.50
2019-04-22T01:05:00.794Z,1.80
2019-04-22T01:06:08.038Z,3.10
2019-04-22T01:07:02.019Z,2.40
2019-04-22T01:07:56.381Z,2.90
2019-04-22T01:11:04.507Z,3.40
2019-04-22T01:12:00.152Z,2.10
2019-04-22T01:12:57.213Z,1.90
2019-04-22T01:15:01.063Z,3.20
2019-04-22T01:16:04.500Z,3.00
2019-04-22T01:16:59.651Z,4.40
2019-04-22T01:17:57.427Z,3.50
2019-04-22T01:19:00.578Z,3.30
2019-04-22T01:20:29.388Z,2.60
2019-04-22T01:21:58.474Z,3.70
2019-04-22T01:22:59.045Z,2.10
2019-04-22T01:24:57.612Z,3.70
2019-04-22T01:25:55.101Z,2.70
2019-04-22T01:26:56.378Z,2.00
2019-04-22T01:27:54.458Z,2.00
2019-04-22T01:28:49.999Z,4.10
2019-04-22T01:29:46.845Z,2.40
2019-04-22T01:30:44.048Z,2.70
2019-04-22T01:31:38.472Z,2.50
2019-04-22T01:32:40.014Z,2.10
2019-04-22T01:33:42.048Z,2.70
2019-04-22T01:34:51.637Z,2.00
2019-04-22T01:35:56.900Z,3.80
2019-04-22T01:36:55.445Z,1.50
2019-04-22T01:38:58.197Z,3.10
2019-04-22T01:40:07.477Z,2.10
2019-04-22T01:41:04.563Z,2.40
2019-04-22T01:42:10.733Z,2.80
2019-04-22T01:43:01.915Z,1.70
2019-04-22T01:44:12.319Z,2.60
2019-04-22T01:45:02.624Z,4.10
2019-04-22T01:46:02.626Z,2.30
2019-04-22T01:47:06.669Z,3.20
2019-04-22T01:47:55.385Z,4.60
2019-04-22T01:49:04.391Z,2.80
2019-04-22T01:49:59.914Z,2.70
2019-04-22T01:50:54.982Z,2.60
2019-04-22T01:52:07.777Z,2.60
2019-04-22T01:53:06.297Z,2.30
2019-04-22T01:54:04.147Z,1.30
2019-04-22T01:55:04.467Z,2.20
2019-04-22T01:55:59.015Z,2.40
2019-04-22T01:57:02.178Z,2.40
2019-04-22T01:57:57.964Z,2.20
2019-04-22T01:58:54.682Z,1.50
2019-04-22T01:59:51.532Z,1.40
2019-04-22T02:01:11.384Z,1.50
2019-04-22T02:02:04.482Z,2.10
2019-04-22T02:03:07.219Z,2.30
2019-04-22T02:04:01.226Z,2.50
2019-04-22T02:05:10.667Z,2.90
2019-04-22T02:06:02.370Z,1.80
2019-04-22T02:07:07.462Z,2.40
2019-04-22T02:08:06.824Z,2.60
2019-04-22T02:10:19.371Z,2.40
2019-04-22T02:11:04.589Z,1.30
2019-04-22T02:12:00.219Z,2.90
2019-04-22T02:13:03.154Z,1.90
2019-04-22T02:14:04.039Z,2.00
2019-04-22T02:14:58.092Z,1.80
2019-04-22T02:16:00.521Z,1.90
2019-04-22T02:17:05.176Z,3.00
2019-04-22T02:18:03.238Z,1.70
2019-04-22T02:19:04.029Z,1.90
2019-04-22T02:20:06.833Z,1.80
2019-04-22T02:21:03.311Z,1.70
2019-04-22T02:22:03.955Z,2.70
2019-04-22T02:23:22.980Z,1.90
2019-04-22T02:24:07.016Z,2.40
2019-04-22T02:25:06.011Z,2.50
2019-04-22T02:26:12.048Z,2.20
2019-04-22T02:27:00.403Z,2.00
2019-04-22T02:28:07.844Z,2.40
2019-04-22T02:29:01.884Z,1.60
2019-04-22T02:29:57.925Z,2.00
2019-04-22T02:31:23.177Z,2.80
2019-04-22T02:32:13.388Z,2.10
2019-04-22T02:33:30.741Z,2.00
2019-04-22T02:34:13.693Z,2.00
2019-04-22T02:35:12.986Z,2.40
2019-04-22T02:36:20.237Z,1.50
2019-04-22T02:37:03.183Z,1.30
2019-04-22T02:38:10.342Z,1.80
2019-04-22T02:39:08.013Z,2.70
2019-04-22T02:40:14.405Z,2.70
2019-04-22T02:42:13.209Z,1.90
2019-04-22T02:43:14.561Z,2.00
2019-04-22T02:44:58.568Z,1.70
2019-04-22T02:48:13.885Z,1.90
2019-04-22T02:49:11.360Z,1.90
2019-04-22T02:51:12.666Z,2.00
2019-04-22T02:52:05.574Z,1.90
2019-04-22T02:53:10.468Z,2.00
2019-04-22T02:56:15.637Z,1.80
2019-04-22T02:57:12.303Z,2.00
2019-04-22T02:58:05.921Z,1.40
2019-04-22T03:00:19.491Z,2.40
2019-04-22T03:02:43.152Z,3.00
2019-04-22T03:03:33.202Z,1.70
2019-04-22T03:04:35.616Z,2.50
2019-04-22T03:05:27.442Z,1.60
2019-04-22T03:06:34.621Z,2.00
2019-04-22T03:07:14.873Z,2.00
2019-04-22T03:08:23.647Z,1.50
2019-04-22T03:10:35.480Z,1.60
2019-04-22T03:11:34.123Z,1.70
2019-04-22T03:12:23.718Z,2.30
2019-04-22T03:13:29.247Z,1.70
2019-04-22T03:14:37.581Z,1.50
2019-04-22T03:15:11.596Z,1.40
2019-04-22T03:16:26.067Z,2.30
2019-04-22T03:17:22.022Z,2.70
2019-04-22T03:18:29.125Z,1.60
2019-04-22T03:20:22.069Z,1.30
2019-04-22T03:21:18.590Z,1.50
2019-04-22T03:25:51.482Z,1.70
2019-04-22T03:28:30.915Z,1.90
2019-04-22T03:29:17.831Z,1.00
2019-04-22T03:30:48.317Z,1.30
2019-04-22T03:31:34.132Z,2.40
2019-04-22T03:33:39.955Z,1.70
2019-04-22T03:36:57.317Z,1.40
2019-04-22T03:38:18.120Z,1.10
2019-04-22T03:40:34.627Z,1.10
2019-04-22T03:41:43.323Z,1.80
2019-04-22T03:42:31.957Z,1.80
2019-04-22T03:43:27.405Z,1.80
2019-04-22T03:45:26.397Z,1.40
2019-04-22T03:46:21.102Z,1.30
2019-04-22T03:48:27.098Z,1.10
2019-04-22T03:50:25.460Z,1.20
2019-04-22T03:51:37.886Z,1.00
2019-04-22T03:52:22.486Z,1.60
2019-04-22T03:53:21.478Z,1.70
2019-04-22T03:54:33.950Z,2.10
2019-04-22T03:55:25.595Z,1.20
2019-04-22T03:56:57.239Z,2.00
2019-04-22T03:57:44.855Z,1.70
2019-04-22T03:58:10.927Z,1.00
2019-04-22T03:59:36.975Z,1.30
2019-04-22T04:00:39.352Z,1.20
2019-04-22T04:01:31.910Z,1.20
2019-04-22T04:04:31.755Z,1.40
2019-04-22T04:05:33.937Z,1.60
2019-04-22T04:06:29.657Z,1.60
2019-04-22T04:07:38.335Z,1.20
2019-04-22T04:08:26.743Z,2.00
2019-04-22T04:09:24.015Z,1.10
2019-04-22T04:10:27.788Z,0.80
2019-04-22T04:11:26.824Z,1.40
2019-04-22T04:12:23.760Z,1.40
2019-04-22T04:13:30.352Z,2.00
2019-04-22T04:14:30.195Z,0.90
2019-04-22T04:15:32.744Z,0.80
2019-04-22T04:16:23.152Z,1.30
2019-04-22T04:17:33.243Z,1.70
2019-04-22T04:18:21.140Z,1.40
2019-04-22T04:19:34.437Z,2.00
2019-04-22T04:20:28.734Z,1.20
2019-04-22T04:23:31.168Z,1.20
2019-04-22T04:26:35.265Z,2.00
2019-04-22T04:29:37.759Z,1.20
2019-04-22T04:34:43.734Z,1.60
2019-04-22T04:38:23.850Z,1.30
2019-04-22T04:39:26.813Z,0.90
2019-04-22T04:40:31.627Z,0.90
2019-04-22T04:41:24.899Z,0.80
2019-04-22T04:42:35.195Z,1.40
2019-04-22T04:43:35.075Z,2.10
2019-04-22T04:47:39.114Z,1.60
2019-04-22T04:48:20.789Z,0.90
2019-04-22T04:49:25.961Z,1.30
2019-04-22T04:50:20.545Z,1.10
2019-04-22T04:52:39.142Z,1.70
2019-04-22T04:54:31.104Z,1.20
2019-04-22T04:55:35.055Z,1.80
2019-04-22T04:56:29.624Z,1.30
2019-04-22T04:57:33.745Z,1.30
2019-04-22T04:58:47.445Z,1.60
2019-04-22T04:59:41.222Z,1.50
2019-04-22T05:01:24.820Z,1.50
2019-04-22T05:04:25.485Z,1.40
2019-04-22T05:05:31.533Z,1.30
2019-04-22T05:06:22.393Z,1.30
2019-04-22T05:07:24.377Z,1.20
2019-04-22T05:08:29.050Z,1.30
2019-04-22T05:09:22.062Z,1.50
2019-04-22T05:10:38.479Z,2.00
2019-04-22T05:11:28.445Z,1.80
2019-04-22T05:13:26.650Z,1.00
2019-04-22T05:14:19.133Z,0.80
2019-04-22T05:15:24.907Z,1.40
2019-04-22T05:17:18.686Z,1.50
2019-04-22T05:19:20.283Z,1.80
2019-04-22T05:21:16.539Z,2.00
2019-04-22T05:22:14.941Z,1.50
2019-04-22T05:23:28.879Z,1.20
2019-04-22T05:24:28.450Z,1.60
2019-04-22T05:25:19.034Z,1.10
2019-04-22T05:26:22.570Z,1.30
2019-04-22T05:27:19.701Z,1.50
2019-04-22T05:28:15.194Z,0.90
2019-04-22T05:29:17.009Z,1.40
2019-04-22T05:31:15.773Z,1.40
2019-04-22T05:32:17.611Z,1.60
2019-04-22T05:33:14.232Z,1.20
2019-04-22T05:34:19.458Z,1.30
2019-04-22T05:35:14.311Z,1.40
2019-04-22T05:36:14.356Z,1.30
2019-04-22T05:37:14.729Z,1.70
2019-04-22T05:38:33.210Z,2.20
2019-04-22T05:39:18.517Z,1.40
2019-04-22T05:40:20.518Z,1.20
2019-04-22T05:41:17.784Z,1.10
2019-04-22T05:42:13.504Z,1.60
2019-04-22T05:43:15.876Z,1.50
2019-04-22T05:44:15.835Z,1.00
2019-04-22T05:45:14.849Z,1.70
2019-04-22T05:46:09.071Z,2.00
2019-04-22T05:47:14.788Z,2.00
2019-04-22T05:48:09.392Z,1.10
2019-04-22T05:50:13.199Z,0.90
2019-04-22T05:51:18.107Z,1.20
2019-04-22T05:52:17.254Z,2.20
2019-04-22T05:53:07.112Z,2.10
2019-04-22T05:54:18.934Z,1.80
2019-04-22T05:55:16.337Z,1.00
2019-04-22T05:56:20.676Z,1.10
2019-04-22T05:57:20.162Z,2.10
2019-04-22T05:58:15.688Z,1.10
2019-04-22T05:59:32.632Z,1.50
2019-04-22T06:00:17.999Z,1.30
2019-04-22T06:02:25.248Z,1.50
2019-04-22T06:03:11.958Z,1.50
2019-04-22T06:04:15.950Z,1.60
2019-04-22T06:06:16.640Z,1.90
2019-04-22T06:07:16.584Z,1.70
2019-04-22T06:08:19.678Z,2.00
2019-04-22T06:09:19.136Z,1.40
2019-04-22T06:10:17.348Z,1.30
2019-04-22T06:11:17.125Z,1.80
2019-04-22T06:12:10.214Z,2.10
2019-04-22T06:13:13.849Z,1.20
2019-04-22T06:14:15.305Z,1.40
2019-04-22T06:15:15.773Z,1.50
2019-04-22T06:16:14.625Z,1.00
2019-04-22T06:18:16.094Z,1.30
2019-04-22T06:19:16.805Z,2.10
2019-04-22T06:20:09.185Z,2.00
2019-04-22T06:21:11.257Z,1.80
2019-04-22T06:22:25.319Z,1.50
2019-04-22T06:23:24.108Z,1.00
2019-04-22T06:24:18.514Z,1.20
2019-04-22T06:25:20.491Z,1.10
2019-04-22T06:28:22.286Z,1.90
2019-04-22T06:29:15.280Z,1.30
2019-04-22T06:30:16.939Z,1.40
2019-04-22T06:31:15.734Z,1.50
2019-04-22T06:33:15.236Z,1.20
2019-04-22T06:34:17.787Z,1.40
2019-04-22T06:35:28.069Z,1.30
2019-04-22T06:36:15.782Z,1.60
2019-04-22T06:37:18.185Z,1.30
2019-04-22T06:38:30.149Z,1.30
2019-04-22T06:39:23.001Z,1.40
2019-04-22T06:40:16.941Z,1.80
2019-04-22T06:41:17.188Z,1.10
2019-04-22T06:42:13.450Z,1.30
2019-04-22T06:43:30.132Z,1.40
2019-04-22T06:46:18.723Z,1.50
2019-04-22T06:47:25.109Z,1.30
2019-04-22T06:49:21.056Z,1.60
2019-04-22T06:50:16.650Z,1.20
2019-04-22T06:51:17.490Z,0.80
2019-04-22T06:52:18.306Z,1.10
2019-04-22T06:53:30.114Z,0.90
2019-04-22T06:54:14.378Z,2.50
2019-04-22T06:55:16.515Z,1.10
2019-04-22T06:56:20.670Z,1.80
2019-04-22T06:57:17.222Z,2.40
2019-04-22T06:58:29.031Z,1.70
2019-04-22T06:59:11.878Z,0.90
2019-04-22T07:00:22.872Z,1.20
2019-04-22T07:01:19.391Z,1.50
2019-04-22T07:02:19.295Z,1.60
2019-04-22T07:04:09.453Z,1.30
2019-04-22T07:05:17.994Z,1.80
2019-04-22T07:06:17.535Z,1.80
2019-04-22T07:07:12.740Z,1.40
2019-04-22T07:08:30.351Z,1.10
2019-04-22T07:10:22.537Z,0.80
2019-04-22T07:11:06.088Z,1.00
2019-04-22T07:12:20.122Z,1.30
2019-04-22T07:13:11.625Z,1.60
2019-04-22T07:14:10.607Z,1.40
2019-04-22T07:15:24.287Z,1.70
2019-04-22T07:16:11.551Z,1.20
2019-04-22T07:17:31.060Z,1.30
2019-04-22T07:18:19.143Z,1.90
2019-04-22T07:19:13.870Z,1.20
2019-04-22T07:20:17.287Z,1.40
2019-04-22T07:21:26.132Z,1.10
2019-04-22T07:22:16.659Z,1.80
2019-04-22T07:23:13.425Z,1.90
2019-04-22T07:24:27.801Z,1.40
2019-04-22T07:25:09.925Z,1.10
2019-04-22T07:26:08.791Z,1.30
2019-04-22T07:28:13.840Z,1.30
2019-04-22T07:29:17.165Z,1.50
2019-04-22T07:30:17.010Z,1.00
2019-04-22T07:31:17.389Z,1.10
2019-04-22T07:32:17.296Z,1.60
2019-04-22T07:35:19.396Z,2.10
2019-04-22T07:37:29.593Z,1.60
2019-04-22T07:38:20.557Z,1.00
2019-04-22T07:39:15.664Z,1.60
2019-04-22T07:40:10.209Z,1.30
2019-04-22T07:41:12.413Z,1.40
2019-04-22T07:42:12.048Z,1.40
2019-04-22T07:43:22.182Z,1.00
2019-04-22T07:45:10.280Z,1.60
2019-04-22T07:46:15.898Z,1.80
2019-04-22T07:47:18.569Z,1.70
2019-04-22T07:48:27.936Z,1.30
2019-04-22T07:49:16.603Z,1.00
2019-04-22T07:50:28.296Z,1.10
2019-04-22T07:51:13.019Z,1.30
2019-04-22T07:52:14.241Z,1.30
2019-04-22T07:53:08.345Z,0.90
2019-04-22T07:54:18.168Z,1.20
2019-04-22T07:55:05.521Z,0.90
2019-04-22T07:56:16.145Z,1.10
2019-04-22T07:58:11.731Z,2.10
2019-04-22T07:59:15.340Z,1.50
2019-04-22T08:00:16.070Z,1.10
2019-04-22T08:01:14.199Z,1.20
2019-04-22T08:02:21.696Z,0.70
2019-04-22T08:04:34.465Z,1.10
2019-04-22T08:05:16.939Z,1.20
2019-04-22T08:06:29.573Z,1.10
2019-04-22T08:07:14.565Z,0.90
2019-04-22T08:08:24.974Z,1.80
2019-04-22T08:09:14.143Z,2.00
2019-04-22T08:10:34.447Z,1.10
2019-04-22T08:11:30.165Z,1.40
2019-04-22T08:12:12.594Z,0.90
2019-04-22T08:13:14.969Z,1.40
2019-04-22T08:14:17.580Z,1.00
2019-04-22T08:15:13.102Z,1.10
2019-04-22T08:16:10.733Z,1.00
2019-04-22T08:17:41.569Z,1.00
2019-04-22T08:18:28.989Z,0.90
2019-04-22T08:19:17.034Z,1.00
2019-04-22T08:20:18.518Z,1.40
2019-04-22T08:21:13.687Z,1.30
2019-04-22T08:22:07.227Z,1.70
2019-04-22T08:24:34.270Z,1.40
2019-04-22T08:25:10.435Z,1.30
2019-04-22T08:26:11.403Z,1.10
2019-04-22T08:27:11.896Z,0.80
2019-04-22T08:28:10.713Z,2.00
2019-04-22T08:29:14.445Z,0.90
2019-04-22T08:30:15.989Z,1.00
2019-04-22T08:31:14.905Z,1.40
2019-04-22T08:32:13.949Z,1.70
2019-04-22T08:33:15.910Z,1.90
2019-04-22T08:34:13.684Z,1.60
2019-04-22T08:35:18.656Z,2.30
2019-04-22T08:37:43.391Z,1.30
2019-04-22T08:38:11.496Z,0.80
2019-04-22T08:39:16.779Z,1.30
2019-04-22T08:40:12.567Z,1.60
2019-04-22T08:41:16.421Z,1.10
2019-04-22T08:42:18.625Z,1.20
2019-04-22T08:43:20.998Z,0.60
2019-04-22T08:44:07.985Z,1.30
2019-04-22T08:46:17.055Z,1.20
2019-04-22T08:47:21.831Z,1.30
2019-04-22T08:48:11.107Z,1.40
2019-04-22T08:49:09.861Z,1.30
2019-04-22T08:51:15.214Z,1.60
2019-04-22T08:52:16.314Z,1.30
2019-04-22T08:53:19.945Z,1.00
2019-04-22T08:54:11.908Z,2.00
2019-04-22T08:55:20.865Z,1.10
2019-04-22T08:56:27.506Z,1.00
2019-04-22T08:57:15.988Z,0.70
2019-04-22T08:58:25.188Z,1.50
2019-04-22T08:59:23.255Z,1.50
2019-04-22T09:00:14.717Z,1.30
2019-04-22T09:01:11.267Z,1.70
2019-04-22T09:02:18.521Z,1.20
2019-04-22T09:03:11.065Z,0.90
2019-04-22T09:04:10.070Z,1.20
2019-04-22T09:05:35.896Z,1.40
2019-04-22T09:06:20.135Z,1.70
2019-04-22T09:07:20.284Z,1.40
2019-04-22T09:08:14.313Z,1.40
2019-04-22T09:09:11.551Z,0.90
2019-04-22T09:10:13.024Z,1.60
2019-04-22T09:11:17.462Z,1.90
2019-04-22T09:12:14.716Z,1.20
2019-04-22T09:13:05.872Z,1.10
2019-04-22T09:15:16.691Z,1.00
2019-04-22T09:16:12.905Z,1.00
2019-04-22T09:17:17.524Z,0.70
2019-04-22T09:18:16.186Z,1.10
2019-04-22T09:19:12.612Z,1.50
2019-04-22T09:20:16.825Z,1.00
2019-04-22T09:21:18.606Z,0.90
2019-04-22T09:22:13.693Z,1.30
2019-04-22T09:23:17.715Z,1.00
2019-04-22T09:24:10.853Z,1.00
2019-04-22T09:25:08.129Z,1.50
2019-04-22T09:26:19.841Z,1.40
2019-04-22T09:27:22.864Z,1.80
2019-04-22T09:28:33.188Z,1.00
2019-04-22T09:29:14.681Z,0.90
2019-04-22T09:30:15.105Z,0.90
2019-04-22T09:31:11.751Z,1.30
2019-04-22T09:32:11.562Z,1.30
2019-04-22T09:33:14.500Z,1.10
2019-04-22T09:34:06.928Z,0.80
2019-04-22T09:35:09.960Z,0.60
2019-04-22T09:36:16.809Z,0.80
2019-04-22T09:38:26.817Z,1.20
2019-04-22T09:39:17.074Z,1.20
2019-04-22T09:40:28.913Z,1.30
2019-04-22T09:41:14.206Z,1.20
2019-04-22T09:42:09.105Z,1.30
2019-04-22T09:43:11.440Z,1.20
2019-04-22T09:44:09.318Z,1.60
2019-04-22T09:45:13.162Z,1.20
2019-04-22T09:46:14.879Z,1.10
2019-04-22T09:47:11.688Z,1.10
2019-04-22T09:48:18.107Z,1.90
2019-04-22T09:49:12.188Z,1.70
2019-04-22T09:50:09.747Z,0.70
2019-04-22T09:51:11.586Z,1.40
2019-04-22T09:52:13.304Z,1.30
2019-04-22T09:53:18.004Z,1.10
2019-04-22T09:54:14.436Z,1.40
2019-04-22T09:55:12.505Z,1.30
2019-04-22T09:56:09.786Z,1.20
2019-04-22T09:57:09.006Z,1.00
2019-04-22T09:58:11.878Z,1.10
2019-04-22T09:59:07.489Z,1.20
2019-04-22T10:00:15.525Z,1.30
2019-04-22T10:01:19.137Z,1.30
2019-04-22T10:03:13.644Z,1.00
2019-04-22T10:04:06.921Z,1.00
2019-04-22T10:05:16.204Z,1.10
2019-04-22T10:06:16.559Z,1.10
2019-04-22T10:07:17.554Z,0.70
2019-04-22T10:08:16.374Z,1.40
2019-04-22T10:09:34.440Z,0.80
2019-04-22T10:11:13.129Z,1.10
2019-04-22T10:12:10.440Z,0.90
2019-04-22T10:13:12.897Z,1.20
2019-04-22T10:14:13.659Z,1.10
2019-04-22T10:15:09.708Z,1.10
2019-04-22T10:16:17.624Z,0.90
2019-04-22T10:17:07.771Z,1.40
2019-04-22T10:18:12.783Z,1.30
2019-04-22T10:19:11.047Z,1.10
2019-04-22T10:20:10.294Z,1.10
2019-04-22T10:21:16.568Z,1.00
2019-04-22T10:22:12.043Z,0.90
2019-04-22T10:23:14.022Z,1.00
2019-04-22T10:24:12.166Z,1.10
2019-04-22T10:25:11.899Z,1.70
2019-04-22T10:26:17.697Z,1.00
2019-04-22T10:27:07.769Z,1.60
2019-04-22T10:28:14.858Z,0.90
2019-04-22T10:29:10.707Z,1.00
2019-04-22T10:30:08.807Z,1.10
2019-04-22T10:31:14.494Z,0.80
2019-04-22T10:32:06.692Z,1.30
2019-04-22T10:33:04.582Z,1.20
2019-04-22T10:34:00.145Z,0.80
2019-04-22T10:34:52.295Z,1.00
2019-04-22T10:35:45.649Z,0.90
2019-04-22T10:36:51.075Z,1.10
2019-04-22T10:37:46.085Z,0.70
2019-04-22T10:38:44.527Z,0.90
2019-04-22T10:39:53.283Z,1.20
2019-04-22T10:40:46.713Z,0.90
2019-04-22T10:41:44.421Z,1.00
2019-04-22T10:42:45.338Z,1.10
2019-04-22T10:43:45.348Z,0.70
2019-04-22T10:44:45.240Z,0.80
2019-04-22T10:45:44.153Z,1.20
2019-04-22T10:46:44.394Z,1.10
2019-04-22T10:47:44.127Z,1.50
2019-04-22T10:48:44.366Z,1.90
2019-04-22T10:49:44.452Z,1.00
2019-04-22T10:50:44.105Z,0.90
2019-04-22T10:51:44.488Z,0.80
2019-04-22T10:52:45.477Z,1.30
2019-04-22T10:53:44.096Z,1.50
2019-04-22T10:54:45.395Z,0.90
2019-04-22T10:55:45.667Z,1.40
2019-04-22T10:56:45.220Z,1.00
2019-04-22T10:57:44.454Z,1.40
2019-04-22T10:58:44.648Z,1.00
2019-04-22T10:59:44.927Z,1.00
2019-04-22T11:00:45.305Z,1.10
2019-04-22T11:01:44.444Z,1.30
2019-04-22T11:02:43.961Z,1.20
2019-04-22T11:03:45.509Z,1.60
2019-04-22T11:04:44.069Z,1.00
2019-04-22T11:05:44.336Z,1.60
2019-04-22T11:06:52.343Z,0.90
2019-04-22T11:07:53.297Z,1.10
2019-04-22T11:08:51.898Z,1.10
2019-04-22T11:09:51.776Z,1.10
2019-04-22T11:11:03.930Z,1.10
2019-04-22T11:11:54.204Z,1.80
2019-04-22T11:12:45.225Z,0.80
2019-04-22T11:13:44.147Z,1.00
2019-04-22T11:14:43.870Z,1.60
2019-04-22T11:15:44.601Z,1.20
2019-04-22T11:16:43.889Z,1.20
2019-04-22T11:17:43.862Z,1.00
2019-04-22T11:18:43.803Z,1.30
2019-04-22T11:19:43.770Z,1.20
2019-04-22T11:20:44.019Z,0.80
2019-04-22T11:21:57.086Z,0.80
2019-04-22T11:22:44.763Z,1.00
2019-04-22T11:23:44.772Z,1.30
2019-04-22T11:24:44.492Z,1.10
2019-04-22T11:25:44.017Z,1.30
2019-04-22T11:26:45.084Z,1.60
2019-04-22T11:27:44.385Z,1.00
2019-04-22T11:28:43.716Z,0.80
2019-04-22T11:29:43.782Z,0.80
2019-04-22T11:30:44.704Z,1.10
2019-04-22T11:31:44.373Z,1.10
2019-04-22T11:32:44.671Z,1.20
2019-04-22T11:33:44.790Z,1.40
2019-04-22T11:34:44.831Z,1.20
2019-04-22T11:35:43.853Z,1.10
2019-04-22T11:36:44.923Z,1.30
2019-04-22T11:37:43.683Z,1.10
2019-04-22T11:38:48.808Z,1.30
2019-04-22T11:39:44.910Z,0.70
2019-04-22T11:40:49.647Z,1.30
2019-04-22T11:41:44.546Z,1.30
2019-04-22T11:42:43.925Z,1.00
2019-04-22T11:43:45.092Z,0.90
2019-04-22T11:44:43.498Z,1.00
2019-04-22T11:45:44.951Z,1.10
2019-04-22T11:46:43.469Z,1.10
2019-04-22T11:47:43.530Z,1.00
2019-04-22T11:48:43.451Z,0.80
2019-04-22T11:49:43.972Z,1.30
2019-04-22T11:50:43.989Z,1.30
2019-04-22T11:51:43.433Z,0.90
2019-04-22T11:52:44.653Z,0.80
2019-04-22T11:53:44.913Z,1.00
2019-04-22T11:54:43.384Z,1.10
2019-04-22T11:55:44.607Z,1.10
2019-04-22T11:56:43.374Z,1.10
2019-04-22T11:57:44.779Z,0.80
2019-04-22T11:58:44.523Z,0.90
2019-04-22T11:59:44.829Z,1.50
2019-04-22T12:00:43.333Z,0.80
2019-04-22T12:01:44.548Z,0.80
2019-04-22T12:02:43.280Z,1.40
2019-04-22T12:03:44.233Z,1.30
2019-04-22T12:04:43.709Z,0.90
2019-04-22T12:05:43.951Z,0.90
2019-04-22T12:06:44.147Z,1.10
2019-04-22T12:07:44.582Z,1.60
2019-04-22T12:08:43.700Z,1.10
2019-04-22T12:09:43.639Z,1.30
2019-04-22T12:10:50.592Z,0.90
2019-04-22T12:11:44.479Z,1.40
2019-04-22T12:12:45.922Z,0.80
2019-04-22T12:13:44.115Z,0.80
2019-04-22T12:14:43.155Z,0.90
2019-04-22T12:15:43.136Z,1.30
2019-04-22T12:16:43.612Z,1.20
2019-04-22T12:17:44.738Z,1.00
2019-04-22T12:18:43.172Z,1.10
2019-04-22T12:19:44.218Z,0.80
2019-04-22T12:20:43.364Z,1.10
2019-04-22T12:21:43.091Z,1.10
2019-04-22T12:22:43.056Z,1.20
2019-04-22T12:23:43.498Z,1.20
2019-04-22T12:24:43.087Z,1.00
2019-04-22T12:25:51.623Z,0.80
2019-04-22T12:26:44.239Z,0.90
2019-04-22T12:27:43.202Z,0.80
2019-04-22T12:28:43.065Z,1.60
2019-04-22T12:29:43.030Z,0.90
2019-04-22T12:30:43.573Z,0.90
2019-04-22T12:31:42.977Z,1.00
2019-04-22T12:32:43.592Z,1.00
2019-04-22T12:33:43.415Z,0.70
2019-04-22T12:34:43.688Z,0.90
2019-04-22T12:35:44.243Z,0.80
2019-04-22T12:36:44.698Z,0.80
2019-04-22T12:37:49.903Z,1.00
2019-04-22T12:38:45.317Z,1.20
2019-04-22T12:39:43.500Z,0.70
2019-04-22T12:40:51.227Z,0.90
2019-04-22T12:41:44.297Z,1.20
2019-04-22T12:42:42.888Z,1.00
2019-04-22T12:43:43.213Z,0.80
2019-04-22T12:44:44.100Z,1.00
2019-04-22T12:45:44.607Z,1.40
2019-04-22T12:46:43.965Z,0.90
2019-04-22T12:47:44.092Z,1.20
2019-04-22T12:48:43.426Z,0.80
2019-04-22T12:49:51.816Z,0.80
2019-04-22T12:50:45.931Z,0.80
2019-04-22T12:51:42.955Z,0.70
2019-04-22T12:52:50.503Z,1.20
2019-04-22T12:53:44.566Z,1.20
2019-04-22T12:54:42.739Z,0.90
2019-04-22T12:55:43.917Z,0.90
2019-04-22T12:56:43.994Z,1.30
2019-04-22T12:57:42.876Z,1.10
2019-04-22T12:58:43.400Z,1.10
2019-04-22T12:59:43.798Z,0.70
2019-04-22T13:00:42.823Z,0.90
2019-04-22T13:01:42.783Z,1.60
2019-04-22T13:02:43.104Z,1.40
2019-04-22T13:03:42.731Z,0.80
2019-04-22T13:04:43.492Z,1.00
2019-04-22T13:05:43.075Z,0.80
2019-04-22T13:06:44.032Z,0.60
2019-04-22T13:07:44.132Z,1.10
2019-04-22T13:08:43.563Z,1.20
2019-04-22T13:09:43.293Z,1.10
2019-04-22T13:10:53.381Z,0.80
2019-04-22T13:11:44.561Z,1.00
2019-04-22T13:12:42.818Z,0.70
2019-04-22T13:13:42.912Z,1.00
2019-04-22T13:14:43.334Z,0.70
2019-04-22T13:15:42.471Z,0.80
2019-04-22T13:16:42.944Z,1.30
2019-04-22T13:17:44.209Z,1.20
2019-04-22T13:18:49.971Z,0.80
2019-04-22T13:19:44.424Z,0.80
2019-04-22T13:20:42.459Z,1.30
2019-04-22T13:21:42.775Z,0.80
2019-04-22T13:22:43.001Z,0.80
2019-04-22T13:23:42.376Z,0.80
2019-04-22T13:24:43.770Z,0.90
2019-04-22T13:25:42.919Z,0.90
2019-04-22T13:26:43.045Z,0.70
2019-04-22T13:27:42.893Z,1.00
2019-04-22T13:28:43.126Z,0.70
2019-04-22T13:29:43.486Z,0.60
2019-04-22T13:30:42.305Z,0.70
2019-04-22T13:31:42.564Z,1.00
2019-04-22T13:32:42.908Z,1.50
2019-04-22T13:33:43.067Z,1.20
2019-04-22T13:34:47.578Z,0.80
2019-04-22T13:35:43.833Z,0.90
2019-04-22T13:36:44.647Z,0.90
2019-04-22T13:37:43.329Z,0.80
2019-04-22T13:38:42.917Z,0.80
2019-04-22T13:39:43.214Z,0.80
2019-04-22T13:40:59.257Z,0.90
2019-04-22T13:41:48.590Z,1.20
2019-04-22T13:42:43.171Z,0.80
2019-04-22T13:43:42.918Z,1.20
2019-04-22T13:44:42.165Z,0.60
2019-04-22T13:45:43.627Z,0.80
2019-04-22T13:47:04.244Z,0.70
2019-04-22T13:48:06.350Z,0.60
2019-04-22T13:49:08.606Z,0.80
2019-04-22T13:50:19.897Z,0.60
2019-04-22T13:51:20.803Z,0.70
2019-04-22T13:52:20.761Z,0.90
2019-04-22T13:53:33.720Z,0.80
2019-04-22T13:54:36.471Z,0.60
2019-04-22T13:55:11.904Z,0.60
2019-04-22T13:56:03.237Z,0.60
2019-04-22T13:56:56.927Z,0.70
2019-04-22T13:58:01.118Z,0.90
2019-04-22T13:58:57.754Z,0.90
2019-04-22T13:59:46.917Z,0.90
2019-04-22T14:00:43.018Z,0.80
2019-04-22T14:01:43.015Z,1.10
2019-04-22T14:02:42.578Z,0.80
2019-04-22T14:03:42.829Z,0.70
2019-04-22T14:04:42.937Z,0.80
2019-04-22T14:05:42.617Z,0.70
2019-04-22T14:06:42.862Z,0.90
2019-04-22T14:07:43.147Z,0.80
2019-04-22T14:08:43.130Z,0.90
2019-04-22T14:09:42.302Z,0.50
2019-04-22T14:10:42.818Z,0.70
2019-04-22T14:11:49.675Z,0.60
2019-04-22T14:12:42.844Z,0.50
2019-04-22T14:13:41.959Z,1.10
2019-04-22T14:14:42.857Z,0.60
2019-04-22T14:15:42.262Z,0.50
2019-04-22T14:16:42.771Z,0.90
2019-04-22T14:17:43.224Z,0.70
2019-04-22T14:18:44.606Z,0.60
2019-04-22T14:19:42.350Z,1.00
2019-04-22T14:20:42.813Z,1.20
2019-04-22T14:21:44.348Z,0.70
2019-04-22T14:22:44.305Z,0.60
2019-04-22T14:23:42.484Z,1.00
2019-04-22T14:24:42.661Z,0.70
2019-04-22T14:25:43.021Z,0.60
2019-04-22T14:26:54.938Z,0.60
2019-04-22T14:27:51.160Z,0.70
2019-04-22T14:28:43.743Z,0.50
2019-04-22T14:29:42.005Z,0.80
2019-04-22T14:30:42.533Z,0.50
2019-04-22T14:31:42.464Z,0.90
2019-04-22T14:32:42.197Z,0.60
2019-04-22T14:33:46.317Z,0.60
2019-04-22T14:34:42.819Z,0.70
2019-04-22T14:35:41.798Z,0.70
2019-04-22T14:36:41.574Z,0.60
2019-04-22T14:37:42.491Z,0.70
2019-04-22T14:38:41.842Z,0.80
2019-04-22T14:39:41.984Z,0.60
2019-04-22T14:40:43.517Z,0.90
2019-04-22T14:41:55.990Z,0.60
2019-04-22T14:43:00.832Z,0.80
2019-04-22T14:44:45.243Z,0.50
2019-04-22T14:45:20.231Z,0.60
2019-04-22T14:47:10.363Z,0.70
2019-04-22T14:48:07.072Z,0.40
2019-04-22T14:49:06.787Z,0.50
2019-04-22T14:50:06.278Z,0.70